Wednesday, July 23, 2014, 7:58 AM EDT

KRIC, Richmond International Airport

Location: Sandston, VA, United States Lat: 37.517
Local Time: 7:58 AM EDT (11:58 GMT) Lon: -77.317
Time Zone: US/Eastern Elev: 167 ft

Show me the last for .
Show Decoded

2014-07-23 06:54 METAR KRIC 231054Z 20004KT 3/4SM R34/P6000FT BR BKN002 BKN006 BKN300 22/21 A3003
                 RMK AO2 SLP173 T02170211 =
2014-07-23 06:26 METAR KRIC 231026Z 00000KT 3/4SM R34/1800V3000FT BR SCT002 BKN006 BKN300 21/21
                 A3002 RMK AO2 =
2014-07-23 06:07 METAR KRIC 231007Z 18004KT 1SM R34/3500VP6000FT BR SCT004 BKN300 21/20 A3002 RMK
                 AO2 =
2014-07-23 05:54 METAR KRIC 230954Z 18004KT 2 1/2SM R34/4000VP6000FT BR SCT005 SCT300 21/20 A3003
                 RMK AO2 SLP170 VIS SE-S 1 1/2 T02110200 =
2014-07-23 04:54 METAR KRIC 230854Z 18003KT 9SM MIFG FEW006 22/21 A3004 RMK AO2 SLP174 T02220206
                 56011 =
2014-07-23 04:48 METAR KRIC 230848Z 20003KT 1 3/4SM BR CLR 22/21 A3004 RMK AO2 VIS 3/4V5 =
2014-07-23 03:54 METAR KRIC 230754Z 00000KT 9SM FEW007 22/20 A3005 =
2014-07-23 02:54 METAR KRIC 230654Z 00000KT 10SM FEW007 23/21 A3005 RMK AO2 SLP180 T02280206 =
2014-07-23 02:27 METAR KRIC 230627Z 21003KT 10SM FEW008 22/21 A3006 RMK AO2 =
2014-07-23 01:54 METAR KRIC 230554Z 19003KT 10SM CLR 22/20 A3007 RMK AO2 SLP185 T02220200 10278
                 20222 58008 =
2014-07-23 00:54 METAR KRIC 230454Z 00000KT 10SM FEW300 23/20 A3009 RMK AO2 SLP192 T02280200
                 403110206 =
2014-07-22 23:54 METAR KRIC 230354Z 00000KT 10SM FEW250 24/21 A3010 =
2014-07-22 22:54 METAR KRIC 230254Z 15003KT 10SM FEW250 24/21 A3009 RMK AO2 SLP193 T02440206
                 51003 =
2014-07-22 21:54 METAR KRIC 230154Z 14006KT 10SM SCT250 25/21 A3009 =
2014-07-22 20:54 METAR KRIC 230054Z 12006KT 10SM SCT250 26/21 A3009 RMK AO2 SLP192 T02610206 =
2014-07-22 19:54 METAR KRIC 222354Z 11007KT 10SM FEW035 SCT075 SCT250 28/20 A3009 RMK AO2 SLP192
                 T02780200 10311 20278 56008 =
2014-07-22 18:54 METAR KRIC 222254Z 11008KT 10SM FEW035TCU SCT075 BKN250 29/20 A3009 RMK AO2
                 SLP194 TCU S T02940200 =
2014-07-22 17:54 METAR KRIC 222154Z 12007KT 10SM FEW034 BKN075 BKN250 31/20 A3010 RMK AO2 SLP197
                 T03060200 =
2014-07-22 16:54 METAR KRIC 222054Z 10009KT 10SM FEW042 BKN070 31/20 A3011 RMK AO2 SLP198
                 T03110200 56012 =
2014-07-22 15:54 METAR KRIC 221954Z 13006KT 10SM SCT038 OVC065 30/20 A3012 RMK AO2 SLP201
                 T03000200 =
2014-07-22 14:54 METAR KRIC 221854Z 13006KT 10SM SCT036 OVC060 31/20 A3013 =
2014-07-22 13:54 METAR KRIC 221754Z 12003KT 10SM SCT040 OVC050 29/19 A3015 RMK AO2 SLP211
                 T02940194 10306 20228 57012 =
2014-07-22 12:54 METAR KRIC 221654Z 11007KT 10SM SCT038 BKN047 OVC300 30/19 A3016 RMK AO2 SLP215
                 T03000189 =
2014-07-22 11:54 METAR KRIC 221554Z 04004KT 10SM SCT030 BKN048 OVC300 30/19 A3017 RMK AO2 SLP219
                 T03000194 =
2014-07-22 10:54 METAR KRIC 221454Z VRB04KT 10SM SCT028 BKN044 OVC300 28/19 A3018 RMK AO2 SLP223
                 T02830189 58003 =
2014-07-22 09:54 METAR KRIC 221354Z VRB03KT 10SM FEW012 SCT090 OVC300 27/19 A3019 RMK AO2 SLP225
                 T02670194 =
2014-07-22 08:54 METAR KRIC 221254Z 00000KT 10SM SCT008 BKN300 24/21 A3020 RMK AO2 SLP230
                 T02440211 =

Support USWX by starting your Amazon purchase here.